Time;durP1;ratioP1;P1;durP2;ratioP2;P2;SDS_P1;SDS_P2;PMS_P1;PMS_P2;Temp;Humidity;BMP_temperature;BMP_pressure;BME280_temperature;BME280_humidity;BME280_pressure;Samples;Min_cycle;Max_cycle;Signal;HPM_P1;HPM_P2
2021/10/12 00:01:41;;;;;;;18.00;11.45;;;11.70;99.90;;;;;;5054523;28;20212;-73
2021/10/12 00:04:09;;;;;;;20.55;11.63;;;11.60;99.90;;;;;;5054763;28;20223;-72
2021/10/12 00:06:36;;;;;;;19.33;11.85;;;11.70;99.90;;;;;;5054772;28;20214;-70
2021/10/12 00:09:03;;;;;;;18.58;11.25;;;11.70;99.90;;;;;;5054595;28;20199;-72
2021/10/12 00:11:32;;;;;;;15.63;10.35;;;11.70;99.90;;;;;;5055236;28;20203;-69
2021/10/12 00:14:01;;;;;;;20.35;11.75;;;11.80;99.90;;;;;;5055153;28;20199;-70
2021/10/12 00:16:29;;;;;;;18.70;11.02;;;11.80;99.90;;;;;;5054241;28;20218;-71
2021/10/12 00:18:55;;;;;;;19.00;11.38;;;11.90;99.90;;;;;;5053199;28;20269;-70
2021/10/12 00:21:24;;;;;;;18.42;11.68;;;11.90;99.90;;;;;;5053832;28;20290;-70
2021/10/12 00:23:51;;;;;;;18.77;11.50;;;11.90;99.90;;;;;;5054457;28;20661;-72
2021/10/12 00:26:17;;;;;;;17.25;11.20;;;11.90;99.90;;;;;;5054632;28;20240;-72
2021/10/12 00:28:44;;;;;;;17.73;10.27;;;11.90;99.90;;;;;;5054070;28;20231;-71
2021/10/12 00:31:11;;;;;;;20.13;11.18;;;11.90;99.90;;;;;;5053485;28;20298;-73
2021/10/12 00:33:38;;;;;;;15.80;10.35;;;11.90;99.90;;;;;;5054453;28;20239;-73
2021/10/12 00:36:05;;;;;;;16.55;11.02;;;11.80;99.90;;;;;;5054531;28;20210;-74
2021/10/12 00:38:33;;;;;;;14.90;9.65;;;11.80;99.90;;;;;;5054426;28;20230;-74
2021/10/12 00:41:01;;;;;;;18.10;10.68;;;11.80;99.90;;;;;;5053879;28;20207;-74
2021/10/12 00:43:27;;;;;;;18.75;11.07;;;11.80;99.90;;;;;;5054189;28;20688;-74
2021/10/12 00:45:57;;;;;;;18.40;11.13;;;11.80;99.90;;;;;;5053610;28;20223;-74
2021/10/12 00:48:24;;;;;;;17.30;11.32;;;11.80;99.90;;;;;;5053523;28;20315;-72
2021/10/12 00:50:51;;;;;;;15.43;9.95;;;11.80;99.90;;;;;;5054550;28;20234;-72
2021/10/12 00:53:18;;;;;;;17.30;10.55;;;11.70;99.90;;;;;;5054764;28;20204;-74
2021/10/12 00:55:47;;;;;;;14.80;9.60;;;11.70;99.90;;;;;;5053431;28;20210;-73
2021/10/12 00:58:14;;;;;;;16.98;9.65;;;11.60;99.90;;;;;;5053946;28;20231;-72
2021/10/12 01:00:42;;;;;;;18.25;9.52;;;11.60;99.90;;;;;;5053850;28;20203;-73
2021/10/12 01:03:09;;;;;;;17.60;10.30;;;11.60;99.90;;;;;;5054150;28;20214;-75
2021/10/12 01:05:36;;;;;;;16.85;9.65;;;11.60;99.90;;;;;;5053334;28;20286;-72
2021/10/12 01:08:04;;;;;;;14.27;9.23;;;11.70;99.90;;;;;;5053517;28;20225;-72
2021/10/12 01:10:30;;;;;;;14.25;9.40;;;11.70;99.90;;;;;;5054738;28;20691;-73
2021/10/12 01:12:59;;;;;;;16.75;10.18;;;11.70;99.90;;;;;;5053449;28;20749;-74
2021/10/12 01:15:26;;;;;;;16.45;9.82;;;11.60;99.90;;;;;;5054521;28;20204;-75
2021/10/12 01:17:52;;;;;;;15.27;9.90;;;11.60;99.90;;;;;;5055089;28;20586;-75
2021/10/12 01:20:19;;;;;;;15.15;9.25;;;11.60;99.90;;;;;;5052793;28;20306;-76
2021/10/12 01:22:48;;;;;;;16.50;9.32;;;11.60;99.90;;;;;;5055044;28;20210;-76
2021/10/12 01:25:16;;;;;;;12.27;7.82;;;11.60;99.90;;;;;;5051745;28;20313;-76
2021/10/12 01:27:44;;;;;;;16.17;9.88;;;11.60;99.90;;;;;;5052179;28;20265;-76
2021/10/12 01:30:12;;;;;;;13.73;8.80;;;11.60;99.90;;;;;;5052518;28;20220;-76
2021/10/12 01:32:41;;;;;;;12.35;8.88;;;11.60;99.90;;;;;;5052092;28;20199;-76
2021/10/12 01:35:09;;;;;;;16.05;8.23;;;11.70;99.90;;;;;;5053330;28;20199;-74
2021/10/12 01:37:37;;;;;;;10.48;7.32;;;11.60;99.90;;;;;;5054067;28;20234;-75
2021/10/12 01:40:08;;;;;;;14.90;8.40;;;11.60;99.90;;;;;;5053517;28;20207;-74
2021/10/12 01:42:36;;;;;;;15.50;7.60;;;11.60;99.90;;;;;;5053469;28;20208;-74
2021/10/12 01:45:06;;;;;;;14.75;8.18;;;11.50;99.90;;;;;;5052793;28;20231;-74
2021/10/12 01:47:33;;;;;;;13.30;8.40;;;11.50;99.90;;;;;;5054648;28;20223;-74
2021/10/12 01:50:00;;;;;;;12.57;8.43;;;11.40;99.90;;;;;;5053164;28;20302;-74
2021/10/12 01:52:27;;;;;;;15.50;8.70;;;11.40;99.90;;;;;;5052513;28;20210;-75
2021/10/12 01:54:54;;;;;;;12.85;7.93;;;11.40;99.90;;;;;;5051987;28;20235;-76
2021/10/12 01:57:22;;;;;;;12.20;7.57;;;11.40;99.90;;;;;;5051999;28;20224;-77
2021/10/12 01:59:49;;;;;;;13.00;7.50;;;11.40;99.90;;;;;;5052892;28;20286;-77
2021/10/12 02:02:16;;;;;;;12.45;7.93;;;11.50;99.90;;;;;;5054107;28;20223;-78
2021/10/12 02:04:42;;;;;;;10.80;7.65;;;11.50;99.90;;;;;;5053949;28;20632;-77
2021/10/12 02:07:09;;;;;;;9.75;6.45;;;11.50;99.90;;;;;;5054867;28;20230;-79
2021/10/12 02:09:36;;;;;;;10.93;7.03;;;11.50;99.90;;;;;;5055250;28;20633;-77
2021/10/12 02:12:03;;;;;;;10.93;7.03;;;11.50;99.90;;;;;;5055102;28;20777;-77
2021/10/12 02:14:32;;;;;;;11.32;7.88;;;11.50;99.90;;;;;;5054948;28;20199;-78
2021/10/12 02:16:59;;;;;;;10.18;7.70;;;11.50;99.90;;;;;;5054447;28;20314;-79
2021/10/12 02:19:25;;;;;;;12.20;7.07;;;11.40;99.90;;;;;;5055931;28;20200;-78
2021/10/12 02:21:52;;;;;;;12.35;7.50;;;11.40;99.90;;;;;;5055844;28;20294;-78
2021/10/12 02:24:19;;;;;;;13.02;8.35;;;11.30;99.90;;;;;;5056329;28;20239;-78
2021/10/12 02:26:46;;;;;;;13.38;7.50;;;11.30;99.90;;;;;;5056632;28;20200;-79
2021/10/12 02:29:13;;;;;;;12.75;7.35;;;11.40;99.90;;;;;;5059480;28;20252;-78
2021/10/12 02:31:41;;;;;;;11.32;7.32;;;11.40;99.90;;;;;;5059376;28;20207;-78
2021/10/12 02:34:08;;;;;;;12.25;8.50;;;11.40;99.90;;;;;;5059634;28;20271;-77
2021/10/12 02:36:35;;;;;;;11.77;7.70;;;11.40;99.90;;;;;;5059069;28;20561;-79
2021/10/12 02:39:02;;;;;;;11.40;7.43;;;11.50;99.90;;;;;;5058695;28;20573;-74
2021/10/12 02:41:29;;;;;;;13.02;8.10;;;11.50;99.90;;;;;;5057494;28;20210;-75
2021/10/12 02:43:56;;;;;;;14.57;8.80;;;11.60;99.90;;;;;;5057461;28;20207;-73
2021/10/12 02:46:23;;;;;;;13.52;8.95;;;11.50;99.90;;;;;;5057393;28;20286;-73
2021/10/12 02:48:51;;;;;;;12.07;7.95;;;11.30;99.90;;;;;;5057912;28;20219;-74
2021/10/12 02:51:18;;;;;;;10.35;7.97;;;11.20;99.90;;;;;;5057489;28;20310;-72
2021/10/12 02:53:44;;;;;;;13.88;8.23;;;11.20;99.90;;;;;;5057814;28;20295;-74
2021/10/12 02:56:11;;;;;;;11.95;7.63;;;11.20;99.90;;;;;;5057257;28;20200;-74
2021/10/12 02:58:38;;;;;;;14.82;8.13;;;11.20;99.90;;;;;;5057130;28;20257;-73
2021/10/12 03:01:05;;;;;;;13.18;8.25;;;11.20;99.90;;;;;;5057066;28;20218;-72
2021/10/12 03:03:32;;;;;;;10.70;7.82;;;11.20;99.90;;;;;;5057163;28;20207;-73
2021/10/12 03:06:00;;;;;;;11.95;7.72;;;11.30;99.90;;;;;;5057017;28;20277;-74
2021/10/12 03:08:27;;;;;;;13.57;8.82;;;11.30;99.90;;;;;;5057102;28;20577;-73
2021/10/12 03:10:54;;;;;;;14.27;7.95;;;11.30;99.90;;;;;;5057326;28;20587;-73
2021/10/12 03:13:21;;;;;;;11.45;8.57;;;11.30;99.90;;;;;;5056632;28;20231;-72
2021/10/12 03:15:48;;;;;;;14.18;8.60;;;11.40;99.90;;;;;;5056962;28;20203;-74
2021/10/12 03:18:14;;;;;;;15.13;8.25;;;11.40;99.90;;;;;;5056954;28;20310;-73
2021/10/12 03:20:41;;;;;;;12.75;8.00;;;11.20;99.90;;;;;;5056669;28;20289;-73
2021/10/12 03:23:09;;;;;;;12.60;7.70;;;11.20;99.90;;;;;;5056425;28;20569;-72
2021/10/12 03:25:37;;;;;;;11.15;6.95;;;11.10;99.90;;;;;;5056739;28;20219;-73
2021/10/12 03:28:04;;;;;;;9.90;6.68;;;11.10;99.90;;;;;;5057421;28;20223;-73
2021/10/12 03:30:31;;;;;;;13.18;7.13;;;11.10;99.90;;;;;;5056123;28;20203;-74
2021/10/12 03:32:57;;;;;;;11.30;7.32;;;11.00;99.90;;;;;;5056502;28;20203;-72
2021/10/12 03:35:30;;;;;;;11.18;6.95;;;11.00;99.90;;;;;;5056844;28;20290;-74
2021/10/12 03:37:57;;;;;;;13.07;7.30;;;11.00;99.90;;;;;;5056621;28;20313;-73
2021/10/12 03:40:25;;;;;;;9.93;6.20;;;11.10;99.90;;;;;;5056333;28;20287;-74
2021/10/12 03:42:52;;;;;;;8.93;6.35;;;11.00;99.90;;;;;;5056189;28;20207;-72
2021/10/12 03:45:19;;;;;;;11.55;6.93;;;11.10;99.90;;;;;;5056010;28;20223;-73
2021/10/12 03:47:46;;;;;;;12.60;7.07;;;11.00;99.90;;;;;;5056475;28;20319;-73
2021/10/12 03:50:13;;;;;;;11.55;7.38;;;11.10;99.90;;;;;;5056552;28;20200;-73
2021/10/12 03:52:40;;;;;;;9.23;6.90;;;11.10;99.90;;;;;;5055775;28;20298;-72
2021/10/12 03:55:08;;;;;;;11.50;6.60;;;11.30;99.90;;;;;;5056175;28;20199;-73
2021/10/12 03:57:36;;;;;;;17.05;8.73;;;11.40;99.90;;;;;;5056164;28;20306;-73
2021/10/12 04:00:03;;;;;;;13.95;7.63;;;11.50;99.90;;;;;;5056527;28;20305;-73
2021/10/12 04:02:30;;;;;;;9.80;7.30;;;11.50;99.90;;;;;;5055882;28;20543;-72
2021/10/12 04:04:57;;;;;;;11.60;7.43;;;11.60;99.90;;;;;;5056300;28;20294;-73
2021/10/12 04:07:24;;;;;;;10.75;7.57;;;11.60;99.90;;;;;;5055959;28;20223;-73
2021/10/12 04:09:51;;;;;;;12.85;8.13;;;11.60;99.90;;;;;;5055618;28;20207;-73
2021/10/12 04:12:18;;;;;;;8.65;6.95;;;11.60;99.90;;;;;;5055407;28;20293;-72
2021/10/12 04:14:46;;;;;;;13.07;7.32;;;11.50;99.90;;;;;;5055561;28;20207;-73
2021/10/12 04:17:13;;;;;;;13.40;8.40;;;11.50;99.90;;;;;;5055356;28;20238;-73
2021/10/12 04:19:39;;;;;;;12.20;8.07;;;11.50;99.90;;;;;;5055565;28;20298;-74
2021/10/12 04:22:06;;;;;;;9.48;6.55;;;11.50;99.90;;;;;;5055086;28;20199;-73
2021/10/12 04:24:35;;;;;;;13.35;8.05;;;11.50;99.90;;;;;;5055250;28;20744;-74
2021/10/12 04:27:03;;;;;;;9.35;7.20;;;11.60;99.90;;;;;;5055436;28;20266;-72
2021/10/12 04:29:30;;;;;;;15.43;7.95;;;11.60;99.90;;;;;;5055282;28;20692;-74
2021/10/12 04:31:59;;;;;;;10.80;7.30;;;11.60;99.90;;;;;;5055146;28;20203;-72
2021/10/12 04:34:27;;;;;;;17.42;7.72;;;11.70;99.90;;;;;;5055150;28;20199;-73
2021/10/12 04:36:54;;;;;;;14.75;8.00;;;11.70;99.90;;;;;;5055446;28;20314;-73
2021/10/12 04:39:21;;;;;;;9.63;7.07;;;11.70;99.90;;;;;;5055267;28;20203;-73
2021/10/12 04:41:49;;;;;;;10.13;7.20;;;11.70;99.90;;;;;;5054448;28;20211;-72
2021/10/12 04:44:16;;;;;;;13.32;8.18;;;11.70;99.90;;;;;;5056248;28;20203;-74
2021/10/12 04:46:43;;;;;;;10.82;7.15;;;11.70;99.90;;;;;;5055002;28;20227;-72
2021/10/12 04:49:12;;;;;;;11.25;7.40;;;11.80;99.90;;;;;;5055408;28;20295;-73
2021/10/12 04:51:39;;;;;;;10.35;6.88;;;11.60;99.90;;;;;;5055402;28;20294;-72
2021/10/12 04:54:05;;;;;;;12.07;7.65;;;11.50;99.90;;;;;;5054945;28;20215;-73
2021/10/12 04:56:32;;;;;;;13.85;8.32;;;11.40;99.90;;;;;;5054967;28;20298;-74
2021/10/12 04:58:59;;;;;;;10.40;8.27;;;11.40;99.90;;;;;;5055380;28;20207;-74
2021/10/12 05:01:26;;;;;;;13.23;7.07;;;11.30;99.90;;;;;;5055093;28;20298;-72
2021/10/12 05:03:53;;;;;;;13.13;8.55;;;11.30;99.90;;;;;;5055189;28;20211;-73
2021/10/12 05:06:21;;;;;;;13.35;7.45;;;11.30;99.90;;;;;;5055170;28;20770;-74
2021/10/12 05:08:48;;;;;;;11.93;7.72;;;11.30;99.90;;;;;;5055444;28;20223;-73
2021/10/12 05:11:15;;;;;;;16.45;8.15;;;11.30;99.90;;;;;;5055014;28;20199;-72
2021/10/12 05:13:41;;;;;;;15.10;8.35;;;11.30;99.90;;;;;;5054690;28;20290;-74
2021/10/12 05:16:12;;;;;;;16.05;8.80;;;11.30;99.90;;;;;;5055338;28;20267;-74
2021/10/12 05:18:41;;;;;;;13.50;8.30;;;11.20;99.90;;;;;;5055186;28;20228;-74
2021/10/12 05:21:08;;;;;;;11.85;7.53;;;11.30;99.90;;;;;;5054938;28;20218;-72
2021/10/12 05:23:36;;;;;;;15.70;8.85;;;11.40;99.90;;;;;;5054967;28;20573;-74
2021/10/12 05:26:03;;;;;;;12.07;8.50;;;11.40;99.90;;;;;;5054620;28;20318;-74
2021/10/12 05:28:31;;;;;;;14.57;9.32;;;11.40;99.90;;;;;;5054757;28;20585;-73
2021/10/12 05:30:58;;;;;;;11.38;7.80;;;11.40;99.90;;;;;;5054869;28;20213;-73
2021/10/12 05:33:24;;;;;;;13.13;8.73;;;11.30;99.90;;;;;;5054967;28;20206;-74
2021/10/12 05:35:51;;;;;;;12.70;8.65;;;11.30;99.90;;;;;;5055162;28;20290;-74
2021/10/12 05:38:19;;;;;;;14.23;8.90;;;11.30;99.90;;;;;;5054895;28;20255;-74
2021/10/12 05:40:48;;;;;;;15.48;8.95;;;11.20;99.90;;;;;;5055266;28;20207;-73
2021/10/12 05:43:15;;;;;;;13.05;8.35;;;11.20;99.90;;;;;;5054687;28;20218;-73
2021/10/12 05:45:42;;;;;;;14.25;8.38;;;11.10;99.90;;;;;;5054470;28;20223;-74
2021/10/12 05:48:10;;;;;;;11.82;8.25;;;11.00;99.90;;;;;;5054798;28;20237;-73
2021/10/12 05:50:37;;;;;;;11.50;8.10;;;11.00;99.90;;;;;;5054389;28;20666;-74
2021/10/12 05:53:15;;;;;;;19.80;9.07;;;11.00;99.90;;;;;;5055244;28;20210;-73
2021/10/12 05:55:50;;;;;;;11.88;7.55;;;11.20;99.90;;;;;;5058473;28;20203;-74
2021/10/12 05:58:28;;;;;;;15.25;9.07;;;11.20;99.90;;;;;;5058268;28;20265;-74
2021/10/12 06:00:55;;;;;;;15.18;9.45;;;11.40;99.90;;;;;;5058458;28;20290;-73
2021/10/12 06:03:21;;;;;;;15.60;9.20;;;11.40;99.90;;;;;;5058158;28;20203;-73
2021/10/12 06:05:48;;;;;;;14.00;8.90;;;11.50;99.90;;;;;;5057994;28;20707;-74
2021/10/12 06:08:15;;;;;;;12.82;7.90;;;11.50;99.90;;;;;;5058509;28;20287;-74
2021/10/12 06:10:42;;;;;;;11.10;8.77;;;11.50;99.90;;;;;;5058296;28;20592;-73
2021/10/12 06:13:10;;;;;;;10.48;7.75;;;11.50;99.90;;;;;;5058462;28;20214;-72
2021/10/12 06:15:40;;;;;;;14.48;8.20;;;11.50;99.90;;;;;;5058707;28;20535;-74
2021/10/12 06:18:07;;;;;;;12.95;8.50;;;11.50;99.90;;;;;;5058332;28;20586;-73
2021/10/12 06:20:34;;;;;;;14.75;8.68;;;11.50;99.90;;;;;;5058227;28;20298;-74
2021/10/12 06:23:01;;;;;;;15.13;8.38;;;11.50;99.90;;;;;;5058176;28;20199;-73
2021/10/12 06:25:28;;;;;;;13.70;8.60;;;11.50;99.90;;;;;;5057867;28;20218;-74
2021/10/12 06:27:54;;;;;;;12.52;8.13;;;11.50;99.90;;;;;;5057943;28;20317;-73
2021/10/12 06:30:21;;;;;;;16.40;10.07;;;11.40;99.90;;;;;;5057949;28;20220;-74
2021/10/12 06:32:49;;;;;;;15.50;9.10;;;11.50;99.90;;;;;;5057972;28;20210;-73
2021/10/12 06:35:16;;;;;;;12.43;8.25;;;11.60;99.90;;;;;;5057172;28;20210;-73
2021/10/12 06:37:43;;;;;;;19.50;11.57;;;11.60;99.90;;;;;;5056308;28;20219;-73
2021/10/12 06:40:11;;;;;;;14.30;9.38;;;11.60;99.90;;;;;;5056520;28;20693;-74
2021/10/12 06:42:38;;;;;;;13.00;8.52;;;11.50;99.90;;;;;;5056595;28;20203;-73
2021/10/12 06:45:06;;;;;;;16.45;9.95;;;11.50;99.90;;;;;;5057212;28;20210;-73
2021/10/12 06:47:33;;;;;;;11.85;8.35;;;11.50;99.90;;;;;;5056671;28;20227;-73
2021/10/12 06:50:01;;;;;;;13.52;8.98;;;11.50;99.90;;;;;;5056983;28;20207;-74
2021/10/12 06:52:28;;;;;;;13.85;8.73;;;11.50;99.90;;;;;;5057149;28;20200;-72
2021/10/12 06:54:54;;;;;;;11.18;8.45;;;11.60;99.90;;;;;;5057897;28;20299;-74
2021/10/12 06:57:21;;;;;;;11.80;7.90;;;11.60;99.90;;;;;;5056566;28;20219;-73
2021/10/12 06:59:48;;;;;;;13.38;9.02;;;11.50;99.90;;;;;;5056907;28;20200;-73
2021/10/12 07:02:15;;;;;;;13.65;7.40;;;11.60;99.90;;;;;;5056557;28;20298;-73
2021/10/12 07:04:41;;;;;;;10.75;7.63;;;11.60;99.90;;;;;;5057010;28;20207;-74
2021/10/12 07:07:10;;;;;;;12.75;9.07;;;11.60;99.90;;;;;;5056586;28;20357;-73
2021/10/12 07:09:36;;;;;;;14.40;8.25;;;11.70;99.90;;;;;;5056436;28;20294;-74
2021/10/12 07:12:04;;;;;;;12.63;8.05;;;11.70;99.90;;;;;;5056899;28;20203;-73
2021/10/12 07:14:31;;;;;;;11.52;7.95;;;11.70;99.90;;;;;;5056577;28;20209;-73
2021/10/12 07:16:57;;;;;;;14.30;8.25;;;11.50;99.90;;;;;;5056599;28;20741;-74
2021/10/12 07:19:26;;;;;;;12.52;7.88;;;11.60;99.90;;;;;;5056888;28;20231;-74
2021/10/12 07:21:53;;;;;;;11.38;7.80;;;11.60;99.90;;;;;;5056742;28;20188;-73
2021/10/12 07:24:21;;;;;;;11.93;7.97;;;11.60;99.90;;;;;;5056356;28;20294;-74
2021/10/12 07:26:49;;;;;;;12.93;9.30;;;11.50;99.90;;;;;;5056607;28;20230;-74
2021/10/12 07:29:16;;;;;;;11.40;8.35;;;11.60;99.90;;;;;;5056411;28;20670;-73
2021/10/12 07:31:43;;;;;;;15.75;8.52;;;11.70;99.90;;;;;;5056037;28;20203;-72
2021/10/12 07:34:10;;;;;;;9.48;6.68;;;11.70;99.90;;;;;;5056286;28;20209;-74
2021/10/12 07:36:37;;;;;;;12.57;8.23;;;11.70;99.90;;;;;;5057052;28;20203;-74
2021/10/12 07:39:05;;;;;;;12.57;7.13;;;11.80;99.90;;;;;;5048248;28;20254;-76
2021/10/12 07:41:33;;;;;;;13.70;8.30;;;11.80;99.90;;;;;;5062668;28;20210;-75
2021/10/12 07:44:00;;;;;;;11.82;7.30;;;11.70;99.90;;;;;;5054865;28;20566;-75
2021/10/12 07:46:28;;;;;;;12.77;8.40;;;11.80;99.90;;;;;;5054939;28;20311;-75
2021/10/12 07:48:58;;;;;;;11.32;7.45;;;11.90;99.90;;;;;;5056696;28;20787;-78
2021/10/12 07:51:25;;;;;;;10.98;7.38;;;11.90;99.90;;;;;;5058323;28;20242;-73
2021/10/12 07:53:52;;;;;;;11.05;6.80;;;11.90;99.90;;;;;;5055617;28;20199;-74
2021/10/12 07:56:35;;;;;;;9.25;6.40;;;11.90;99.90;;;;;;5055773;28;20286;-74
2021/10/12 07:59:04;;;;;;;9.48;6.78;;;11.90;99.90;;;;;;5056024;28;20191;-73
2021/10/12 08:01:32;;;;;;;9.70;6.30;;;11.90;99.90;;;;;;5056012;28;20211;-73
2021/10/12 08:04:00;;;;;;;9.35;5.50;;;11.90;99.90;;;;;;5055156;28;20200;-73
2021/10/12 08:06:27;;;;;;;9.70;6.20;;;11.90;99.90;;;;;;5055137;28;20685;-73
2021/10/12 08:08:54;;;;;;;10.65;6.70;;;11.90;99.90;;;;;;5054719;28;20697;-73
2021/10/12 08:11:24;;;;;;;9.60;6.20;;;11.90;99.90;;;;;;5055029;28;20199;-72
2021/10/12 08:13:55;;;;;;;10.05;6.80;;;11.90;99.90;;;;;;5054723;28;20679;-73
2021/10/12 08:16:29;;;;;;;9.50;6.53;;;11.90;99.90;;;;;;5053958;28;20200;-73
2021/10/12 08:18:56;;;;;;;8.55;5.90;;;12.00;99.90;;;;;;5054848;28;20630;-73
2021/10/12 08:21:24;;;;;;;8.52;6.18;;;12.00;99.90;;;;;;5054510;28;20203;-73
2021/10/12 08:23:52;;;;;;;9.00;6.00;;;12.00;99.90;;;;;;5054627;28;20621;-73
2021/10/12 08:26:19;;;;;;;8.50;5.18;;;12.10;99.90;;;;;;5054703;28;20204;-73
2021/10/12 08:28:47;;;;;;;9.48;5.20;;;12.20;99.90;;;;;;5054477;28;20223;-73
2021/10/12 08:31:13;;;;;;;9.05;6.00;;;12.20;99.90;;;;;;5054470;28;20206;-72
2021/10/12 08:33:42;;;;;;;9.88;5.60;;;12.20;99.90;;;;;;5054507;28;20558;-73
2021/10/12 08:36:10;;;;;;;7.30;5.35;;;12.20;99.90;;;;;;5054469;28;20209;-73
2021/10/12 08:38:37;;;;;;;6.85;5.45;;;12.20;99.90;;;;;;5054103;28;20228;-73
2021/10/12 08:41:06;;;;;;;9.80;5.70;;;12.30;99.90;;;;;;5054061;28;20731;-73
2021/10/12 08:43:34;;;;;;;7.40;5.78;;;12.30;99.90;;;;;;5054593;28;20565;-73
2021/10/12 08:46:01;;;;;;;8.45;5.10;;;12.40;99.90;;;;;;5054041;28;20200;-73
2021/10/12 08:48:31;;;;;;;8.35;5.85;;;12.50;99.90;;;;;;5054175;28;20234;-73
2021/10/12 08:51:00;;;;;;;8.95;6.28;;;12.60;99.90;;;;;;5054423;28;20231;-73
2021/10/12 08:53:29;;;;;;;8.50;5.47;;;12.70;99.90;;;;;;5054104;28;20203;-73
2021/10/12 08:55:56;;;;;;;7.55;5.43;;;12.60;99.90;;;;;;5054023;28;20234;-73
2021/10/12 08:58:24;;;;;;;8.80;5.60;;;12.60;99.90;;;;;;5054168;28;20225;-73
2021/10/12 09:01:04;;;;;;;7.82;5.18;;;12.70;99.90;;;;;;5053808;28;20211;-73
2021/10/12 09:03:51;;;;;;;7.88;5.00;;;12.60;99.90;;;;;;5053966;28;20214;-73
2021/10/12 09:06:30;;;;;;;7.72;5.18;;;12.60;99.90;;;;;;5054181;28;20207;-73
2021/10/12 09:08:59;;;;;;;9.15;5.75;;;12.60;99.90;;;;;;5054141;28;20283;-73
2021/10/12 09:11:28;;;;;;;8.13;5.40;;;12.60;99.90;;;;;;5053754;28;20302;-73
2021/10/12 09:14:01;;;;;;;8.38;5.63;;;12.60;99.90;;;;;;5054796;28;20207;-73
2021/10/12 09:16:32;;;;;;;7.93;5.60;;;12.70;99.90;;;;;;5055210;28;20561;-73
2021/10/12 09:19:00;;;;;;;8.75;5.45;;;12.70;99.90;;;;;;5055208;28;20188;-73
2021/10/12 09:21:30;;;;;;;7.82;4.80;;;12.70;99.90;;;;;;5054660;28;20691;-72
2021/10/12 09:24:02;;;;;;;5.57;4.70;;;12.80;99.90;;;;;;5055085;28;20294;-73
2021/10/12 09:26:33;;;;;;;5.40;4.50;;;12.90;99.90;;;;;;5055496;28;20665;-73
2021/10/12 09:29:02;;;;;;;8.48;4.50;;;13.00;99.90;;;;;;5059011;28;20208;-73
2021/10/12 09:31:34;;;;;;;6.63;4.80;;;13.20;99.90;;;;;;5058842;28;20203;-72
2021/10/12 09:34:03;;;;;;;5.70;4.13;;;13.40;99.90;;;;;;5060066;28;20203;-73
2021/10/12 09:36:34;;;;;;;5.00;4.28;;;13.50;99.90;;;;;;5059315;28;20206;-73
2021/10/12 09:39:01;;;;;;;6.40;4.40;;;13.40;99.90;;;;;;5059412;28;20282;-73
2021/10/12 09:41:29;;;;;;;6.43;4.53;;;13.40;99.90;;;;;;5058379;28;20290;-72
2021/10/12 09:44:12;;;;;;;7.05;4.60;;;13.40;99.90;;;;;;5058636;28;20214;-73
2021/10/12 09:46:40;;;;;;;4.97;3.55;;;13.30;99.90;;;;;;5057599;28;20657;-73
2021/10/12 09:49:11;;;;;;;5.15;4.22;;;13.40;99.90;;;;;;5058401;28;20542;-73
2021/10/12 09:51:43;;;;;;;6.85;3.90;;;13.40;99.90;;;;;;5057865;28;20568;-73
2021/10/12 09:54:21;;;;;;;4.43;3.72;;;13.30;99.90;;;;;;5058016;28;20211;-74
2021/10/12 09:56:48;;;;;;;5.80;4.13;;;13.30;99.90;;;;;;5057477;28;20207;-73
2021/10/12 09:59:15;;;;;;;4.88;3.95;;;13.20;99.90;;;;;;5057801;28;20199;-73
2021/10/12 10:01:45;;;;;;;6.57;3.75;;;13.10;99.90;;;;;;5057603;28;20235;-73
2021/10/12 10:04:13;;;;;;;5.20;4.05;;;13.00;99.90;;;;;;5057786;28;20290;-73
2021/10/12 10:06:44;;;;;;;5.55;3.92;;;13.00;99.90;;;;;;5057768;28;20290;-73
2021/10/12 10:09:12;;;;;;;7.35;4.68;;;12.90;99.90;;;;;;5057968;28;20206;-73
2021/10/12 10:11:39;;;;;;;4.38;3.75;;;12.90;99.90;;;;;;5057478;28;20246;-72
2021/10/12 10:14:08;;;;;;;5.43;3.58;;;12.80;99.90;;;;;;5057731;28;20207;-74
2021/10/12 10:16:36;;;;;;;6.25;4.15;;;12.60;99.90;;;;;;5057442;28;20286;-73
2021/10/12 10:19:06;;;;;;;4.18;3.65;;;12.60;99.90;;;;;;5057475;28;20277;-74
2021/10/12 10:21:38;;;;;;;5.03;3.30;;;12.50;99.90;;;;;;5057098;28;20210;-73
2021/10/12 10:24:10;;;;;;;6.38;3.80;;;12.50;99.90;;;;;;5057167;28;20719;-74
2021/10/12 10:26:39;;;;;;;4.22;3.13;;;12.40;99.90;;;;;;5057656;28;20210;-73
2021/10/12 10:29:21;;;;;;;5.60;3.72;;;12.60;99.90;;;;;;5057670;28;20206;-73
2021/10/12 10:31:51;;;;;;;6.10;4.53;;;12.60;99.90;;;;;;5057567;28;20207;-73
2021/10/12 10:34:36;;;;;;;6.35;4.32;;;12.60;99.90;;;;;;5057744;28;20203;-74
2021/10/12 10:37:22;;;;;;;7.95;4.55;;;12.70;99.90;;;;;;5057248;28;20223;-73
2021/10/12 10:39:52;;;;;;;5.22;3.95;;;12.90;99.90;;;;;;5056386;28;20290;-74
2021/10/12 10:42:56;;;;;;;11.77;7.25;;;13.00;99.90;;;;;;5057111;28;20205;-72
2021/10/12 10:45:42;;;;;;;9.57;6.60;;;13.20;99.90;;;;;;5038712;28;20699;-73
2021/10/12 10:48:11;;;;;;;7.82;5.10;;;13.50;99.90;;;;;;5056805;28;20318;-73
2021/10/12 10:50:38;;;;;;;4.57;4.05;;;13.70;99.90;;;;;;5056795;28;20209;-73
2021/10/12 10:53:06;;;;;;;6.00;4.63;;;13.80;99.90;;;;;;5056379;28;20683;-73
2021/10/12 10:55:36;;;;;;;5.53;4.22;;;13.80;99.90;;;;;;5056791;28;20207;-73
2021/10/12 10:58:06;;;;;;;7.63;4.90;;;13.90;99.90;;;;;;5056704;28;20223;-73
2021/10/12 11:00:44;;;;;;;6.70;4.22;;;13.90;99.90;;;;;;5056428;28;20192;-73
2021/10/12 11:03:42;;;;;;;5.65;4.10;;;13.90;99.90;;;;;;5056219;28;20208;-72
2021/10/12 11:06:20;;;;;;;6.15;5.00;;;13.80;99.90;;;;;;5056569;28;20219;-73
2021/10/12 11:08:58;;;;;;;6.63;5.18;;;13.80;99.90;;;;;;5055999;28;20250;-73
2021/10/12 11:11:31;;;;;;;4.90;4.40;;;13.80;99.90;;;;;;5055834;28;20239;-73
2021/10/12 11:13:59;;;;;;;6.40;4.68;;;13.70;99.90;;;;;;5056147;28;20218;-73
2021/10/12 11:16:33;;;;;;;7.95;4.95;;;13.80;99.90;;;;;;5056017;28;20203;-73
2021/10/12 11:19:01;;;;;;;5.80;4.70;;;13.60;99.90;;;;;;5056095;28;20189;-73
2021/10/12 11:21:29;;;;;;;5.55;4.57;;;13.50;99.90;;;;;;5055722;28;20558;-73
2021/10/12 11:23:57;;;;;;;6.03;4.60;;;13.30;99.90;;;;;;5055754;28;20199;-74
2021/10/12 11:26:27;;;;;;;5.90;3.95;;;13.20;99.90;;;;;;5055774;28;20199;-73
2021/10/12 11:28:55;;;;;;;7.07;4.82;;;13.10;99.90;;;;;;5056236;28;20226;-73
2021/10/12 11:31:23;;;;;;;5.63;4.38;;;13.10;99.90;;;;;;5055582;28;20606;-73
2021/10/12 11:33:51;;;;;;;4.88;4.13;;;13.00;99.90;;;;;;5055762;28;20619;-73
2021/10/12 11:36:21;;;;;;;7.95;3.90;;;12.90;99.90;;;;;;5055463;28;20208;-73
2021/10/12 11:38:53;;;;;;;5.82;3.88;;;13.00;99.90;;;;;;5055631;28;20318;-73
2021/10/12 11:41:26;;;;;;;5.60;4.20;;;13.20;99.90;;;;;;5055334;28;20570;-72
2021/10/12 11:43:56;;;;;;;5.32;3.17;;;13.30;99.90;;;;;;5055482;28;20290;-73
2021/10/12 11:46:29;;;;;;;5.68;3.33;;;13.50;99.90;;;;;;5055943;28;20212;-73
2021/10/12 11:48:57;;;;;;;5.60;3.58;;;13.70;99.90;;;;;;5055852;28;20233;-73
2021/10/12 11:51:25;;;;;;;4.55;3.38;;;13.60;99.90;;;;;;5054537;28;20203;-72
2021/10/12 11:53:54;;;;;;;5.70;3.92;;;13.70;99.90;;;;;;5055671;28;20658;-73
2021/10/12 11:56:23;;;;;;;5.05;3.25;;;13.80;99.90;;;;;;5055837;28;20270;-73
2021/10/12 11:58:56;;;;;;;5.10;3.95;;;13.60;99.90;;;;;;5055826;28;20306;-73
2021/10/12 12:01:29;;;;;;;5.88;3.05;;;13.70;99.90;;;;;;5055485;28;20749;-73
2021/10/12 12:03:57;;;;;;;3.83;2.78;;;13.70;99.90;;;;;;5055831;28;20208;-73
2021/10/12 12:06:26;;;;;;;3.45;2.80;;;13.70;99.90;;;;;;5055879;28;20210;-73
2021/10/12 12:08:55;;;;;;;6.25;3.13;;;14.00;99.90;;;;;;5055818;28;20225;-73
2021/10/12 12:11:25;;;;;;;3.47;2.50;;;14.50;99.90;;;;;;5055048;28;20213;-72
2021/10/12 12:13:54;;;;;;;5.28;2.83;;;14.90;99.90;;;;;;5055222;28;20213;-73
2021/10/12 12:16:22;;;;;;;3.92;3.40;;;15.10;99.90;;;;;;5055689;28;20306;-73
2021/10/12 12:18:50;;;;;;;3.25;2.95;;;15.20;99.90;;;;;;5055077;28;20257;-73
2021/10/12 12:21:28;;;;;;;7.00;4.55;;;15.10;99.90;;;;;;5054917;28;20203;-73
2021/10/12 12:23:57;;;;;;;3.10;2.80;;;15.40;99.90;;;;;;5055140;28;20554;-73
2021/10/12 12:26:27;;;;;;;3.95;2.70;;;15.40;99.90;;;;;;5055143;28;20216;-73
2021/10/12 12:29:15;;;;;;;2.78;2.50;;;15.60;99.90;;;;;;5055339;28;20229;-73
2021/10/12 12:31:47;;;;;;;4.75;3.35;;;15.50;99.90;;;;;;5055029;28;20665;-73
2021/10/12 12:34:25;;;;;;;4.63;3.35;;;15.30;99.90;;;;;;5055104;28;20550;-73
2021/10/12 12:36:51;;;;;;;4.43;3.55;;;15.10;99.90;;;;;;5054966;28;20689;-73
2021/10/12 12:39:19;;;;;;;3.65;3.35;;;15.00;99.90;;;;;;5055082;28;20658;-73
2021/10/12 12:41:47;;;;;;;4.80;3.47;;;14.70;99.90;;;;;;5054459;28;20668;-72
2021/10/12 12:44:24;;;;;;;7.82;3.97;;;14.50;99.90;;;;;;5056315;28;20228;-73
2021/10/12 12:46:59;;;;;;;5.63;3.55;;;14.50;99.90;;;;;;5055820;28;20209;-73
2021/10/12 12:49:27;;;;;;;5.47;3.60;;;14.50;99.90;;;;;;5055094;28;20227;-73